Bariloche, Argentina
Current Conditions -  °F | °C
As of 6:00 PM on Monday 20 Oct 2014 (Local Time) from SAZS Reporting Station
Few Clouds Few Clouds  
Wind Chill: 59°   Ceiling: Unl
Heat Index: 59°   Visibility: 6mi
Dew Point: 37°   Wind: 31mph
Humidity: 45%   Direction: 290°WNW
Pressure: 29.91"   Gusts: 39mph
Location:  41.14°S, 71.32°W
Report Text: SAZS 202100Z 29027G34KT 9999 FEW040 FEW100 15/03 Q1013
Loading
Personal Weather Stations






























Interactive Weather Map
Tropical Storm Tracking
New forecast layout! Learn more

10-Day Weather Forecast

Advertisements
Track Severe Weather on mobile